createdAt,value
2019-03-27T00:01:49.910Z,95043.48
2019-03-27T00:04:22.651Z,95046.37
2019-03-27T00:06:55.621Z,95044.59
2019-03-27T00:09:28.559Z,95047.03
2019-03-27T00:12:01.422Z,95045.20
2019-03-27T00:14:34.214Z,95039.82
2019-03-27T00:17:06.947Z,95041.69
2019-03-27T00:19:39.819Z,95041.04
2019-03-27T00:22:12.916Z,95039.37
2019-03-27T00:24:45.894Z,95040.64
2019-03-27T00:27:18.864Z,95041.53
2019-03-27T00:29:52.371Z,95044.42
2019-03-27T00:32:25.108Z,95049.32
2019-03-27T00:34:57.932Z,95050.22
2019-03-27T00:37:31.337Z,95047.98
2019-03-27T00:40:04.635Z,95044.36
2019-03-27T00:42:37.453Z,95049.73
2019-03-27T00:45:25.376Z,95048.52
2019-03-27T00:47:46.534Z,95050.23
2019-03-27T00:50:19.490Z,95055.69
2019-03-27T00:52:52.418Z,95048.39
2019-03-27T00:55:25.319Z,95053.81
2019-03-27T00:57:58.163Z,95052.70
2019-03-27T01:00:53.739Z,95052.25
2019-03-27T01:03:26.592Z,95054.54
2019-03-27T01:05:59.566Z,95055.72
2019-03-27T01:08:32.562Z,95054.63
2019-03-27T01:11:05.805Z,95050.06
2019-03-27T01:13:38.921Z,95051.32
2019-03-27T01:16:11.953Z,95047.48
2019-03-27T01:18:44.948Z,95056.40
2019-03-27T01:21:17.786Z,95052.29
2019-03-27T01:23:50.679Z,95057.06
2019-03-27T01:26:23.491Z,95059.72
2019-03-27T01:28:56.537Z,95064.84
2019-03-27T01:31:29.542Z,95066.16
2019-03-27T01:34:02.467Z,95063.11
2019-03-27T01:36:35.535Z,95060.25
2019-03-27T01:39:09.564Z,95059.60
2019-03-27T01:41:42.419Z,95062.33
2019-03-27T01:44:15.405Z,95068.12
2019-03-27T01:46:48.350Z,95067.79
2019-03-27T01:49:21.234Z,95064.94
2019-03-27T01:51:54.000Z,95072.80
2019-03-27T01:54:26.852Z,95071.61
2019-03-27T01:56:59.828Z,95078.28
2019-03-27T01:59:32.711Z,95075.75
2019-03-27T02:02:05.559Z,95081.77
2019-03-27T02:04:38.420Z,95083.09
2019-03-27T02:07:11.244Z,95081.41
2019-03-27T02:09:44.036Z,95082.41
2019-03-27T02:12:16.816Z,95080.47
2019-03-27T02:14:49.747Z,95081.89
2019-03-27T02:17:22.606Z,95095.05
2019-03-27T02:19:55.508Z,95087.27
2019-03-27T02:22:28.506Z,95089.88
2019-03-27T02:25:01.347Z,95093.27
2019-03-27T02:27:34.274Z,95093.47
2019-03-27T02:30:08.791Z,95094.18
2019-03-27T02:32:41.667Z,95094.84
2019-03-27T02:35:14.807Z,95090.42
2019-03-27T02:37:47.635Z,95098.30
2019-03-27T02:40:20.425Z,95099.49
2019-03-27T02:42:53.325Z,95105.56
2019-03-27T02:45:26.133Z,95108.75
2019-03-27T02:47:58.952Z,95105.52
2019-03-27T02:50:31.706Z,95107.94
2019-03-27T02:53:04.578Z,95111.36
2019-03-27T02:55:37.470Z,95112.58
2019-03-27T02:58:10.281Z,95116.48
2019-03-27T03:00:43.103Z,95117.52
2019-03-27T03:03:16.106Z,95121.06
2019-03-27T03:05:48.775Z,95122.66
2019-03-27T03:08:22.109Z,95124.28
2019-03-27T03:10:54.936Z,95123.83
2019-03-27T03:13:27.827Z,95127.88
2019-03-27T03:16:00.714Z,95124.28
2019-03-27T03:18:33.481Z,95128.29
2019-03-27T03:21:06.197Z,95130.45
2019-03-27T03:23:39.073Z,95138.94
2019-03-27T03:26:11.863Z,95138.52
2019-03-27T03:28:44.659Z,95137.17
2019-03-27T03:31:17.480Z,95143.06
2019-03-27T03:33:50.302Z,95140.73
2019-03-27T03:36:23.012Z,95139.95
2019-03-27T03:38:55.826Z,95140.63
2019-03-27T03:41:28.684Z,95148.38
2019-03-27T03:44:01.501Z,95146.62
2019-03-27T03:46:34.425Z,95149.52
2019-03-27T03:49:07.300Z,95154.04
2019-03-27T03:51:40.093Z,95161.91
2019-03-27T03:54:13.462Z,95165.66
2019-03-27T03:56:48.968Z,95166.59
2019-03-27T03:59:24.479Z,95168.32
2019-03-27T04:02:04.156Z,95170.23
2019-03-27T04:04:40.201Z,95178.24
2019-03-27T04:07:13.049Z,95174.92
2019-03-27T04:09:46.148Z,95179.02
2019-03-27T04:12:19.204Z,95173.06
2019-03-27T04:14:52.042Z,95171.79
2019-03-27T04:17:24.804Z,95179.51
2019-03-27T04:19:57.794Z,95186.83
2019-03-27T04:22:30.528Z,95188.37
2019-03-27T04:25:03.484Z,95184.44
2019-03-27T04:27:36.335Z,95190.19
2019-03-27T04:30:10.320Z,95191.42
2019-03-27T04:32:43.385Z,95194.38
2019-03-27T04:35:19.401Z,95196.08
2019-03-27T04:37:52.454Z,95196.64
2019-03-27T04:40:25.501Z,95206.55
2019-03-27T04:42:58.570Z,95208.88
2019-03-27T04:45:31.521Z,95213.52
2019-03-27T04:48:04.948Z,95211.61
2019-03-27T04:50:38.077Z,95213.45
2019-03-27T04:53:11.251Z,95221.47
2019-03-27T04:55:44.315Z,95222.06
2019-03-27T04:58:18.578Z,95225.77
2019-03-27T05:00:51.615Z,95234.98
2019-03-27T05:03:26.332Z,95235.61
2019-03-27T05:05:59.464Z,95239.25
2019-03-27T05:08:32.617Z,95237.66
2019-03-27T05:11:05.729Z,95243.80
2019-03-27T05:13:38.801Z,95242.08
2019-03-27T05:16:12.857Z,95245.45
2019-03-27T05:18:45.809Z,95245.15
2019-03-27T05:21:19.078Z,95246.20
2019-03-27T05:23:52.067Z,95243.80
2019-03-27T05:26:24.945Z,95242.53
2019-03-27T05:28:58.217Z,95242.48
2019-03-27T05:31:31.449Z,95247.06
2019-03-27T05:34:05.781Z,95244.23
2019-03-27T05:36:38.804Z,95254.48
2019-03-27T05:39:14.416Z,95257.80
2019-03-27T05:41:46.451Z,95263.28
2019-03-27T05:44:21.212Z,95254.80
2019-03-27T05:46:54.119Z,95256.48
2019-03-27T05:49:27.138Z,95262.45
2019-03-27T05:52:00.128Z,95259.16
2019-03-27T05:54:33.036Z,95260.75
2019-03-27T05:57:06.069Z,95262.88
2019-03-27T05:59:39.088Z,95267.28
2019-03-27T06:02:12.344Z,95267.28
2019-03-27T06:04:45.401Z,95257.50
2019-03-27T06:07:21.241Z,95258.92
2019-03-27T06:09:54.132Z,95256.02
2019-03-27T06:12:27.156Z,95256.26
2019-03-27T06:15:00.070Z,95263.14
2019-03-27T06:17:32.960Z,95265.03
2019-03-27T06:20:07.108Z,95259.30
2019-03-27T06:22:40.269Z,95256.40
2019-03-27T06:25:13.226Z,95257.80
2019-03-27T06:27:46.789Z,95260.56
2019-03-27T06:30:19.898Z,95261.64
2019-03-27T06:32:53.497Z,95257.20
2019-03-27T06:35:27.159Z,95262.02
2019-03-27T06:37:59.980Z,95272.75
2019-03-27T06:40:33.333Z,95265.50
2019-03-27T06:43:06.573Z,95270.19
2019-03-27T06:45:39.905Z,95261.61
2019-03-27T06:48:25.664Z,95264.02
2019-03-27T06:50:50.163Z,95268.88
2019-03-27T06:53:23.328Z,95268.78
2019-03-27T06:55:56.759Z,95271.27
2019-03-27T06:58:29.913Z,95272.03
2019-03-27T07:01:02.855Z,95277.16
2019-03-27T07:03:35.864Z,95268.25
2019-03-27T07:06:09.019Z,95267.05
2019-03-27T07:08:42.085Z,95269.94
2019-03-27T07:11:15.323Z,95274.70
2019-03-27T07:13:48.286Z,95269.77
2019-03-27T07:16:21.681Z,95269.99
2019-03-27T07:18:54.774Z,95274.57
2019-03-27T07:21:35.067Z,95270.98
2019-03-27T07:24:10.522Z,95272.08
2019-03-27T07:26:43.993Z,95278.38
2019-03-27T07:29:19.187Z,95275.53
2019-03-27T07:31:52.630Z,95274.60
2019-03-27T07:34:26.128Z,95272.08
2019-03-27T07:36:59.373Z,95272.85
2019-03-27T07:39:32.396Z,95273.91
2019-03-27T07:42:05.918Z,95269.25
2019-03-27T07:44:39.125Z,95269.91
2019-03-27T07:47:12.515Z,95268.56
2019-03-27T07:49:46.679Z,95266.47
2019-03-27T07:52:19.775Z,95265.51
2019-03-27T07:54:52.708Z,95261.64
2019-03-27T07:57:25.877Z,95269.54
2019-03-27T07:59:58.984Z,95264.47
2019-03-27T08:02:32.097Z,95273.03
2019-03-27T08:05:05.560Z,95285.34
2019-03-27T08:07:38.623Z,95284.03
2019-03-27T08:10:11.771Z,95283.09
2019-03-27T08:12:45.044Z,95284.88
2019-03-27T08:15:18.103Z,95283.37
2019-03-27T08:17:51.136Z,95287.92
2019-03-27T08:20:24.339Z,95288.96
2019-03-27T08:22:57.318Z,95283.55
2019-03-27T08:25:30.410Z,95293.99
2019-03-27T08:28:03.370Z,95288.09
2019-03-27T08:30:36.695Z,95278.97
2019-03-27T08:33:09.806Z,95278.16
2019-03-27T08:35:42.873Z,95276.02
2019-03-27T08:38:16.069Z,95264.53
2019-03-27T08:40:49.054Z,95264.08
2019-03-27T08:43:25.473Z,95278.16
2019-03-27T08:45:58.096Z,95280.91
2019-03-27T08:48:31.516Z,95274.97
2019-03-27T08:51:04.754Z,95279.85
2019-03-27T08:53:37.796Z,95274.84
2019-03-27T08:56:11.306Z,95272.33
2019-03-27T08:58:44.270Z,95272.98
2019-03-27T09:01:17.313Z,95258.20
2019-03-27T09:03:50.421Z,95269.29
2019-03-27T09:06:33.643Z,95254.03
2019-03-27T09:08:58.507Z,95266.16
2019-03-27T09:11:31.415Z,95268.75
2019-03-27T09:14:04.391Z,95269.35
2019-03-27T09:16:37.638Z,95265.23
2019-03-27T09:19:10.952Z,95265.33
2019-03-27T09:21:43.996Z,95267.03
2019-03-27T09:24:17.035Z,95264.61
2019-03-27T09:26:50.078Z,95255.30
2019-03-27T09:29:23.299Z,95261.63
2019-03-27T09:31:56.846Z,95250.27
2019-03-27T09:34:29.870Z,95251.59
2019-03-27T09:37:03.117Z,95250.72
2019-03-27T09:39:36.144Z,95243.33
2019-03-27T09:42:09.314Z,95243.89
2019-03-27T09:44:42.279Z,95248.31
2019-03-27T09:47:15.333Z,95241.08
2019-03-27T09:49:50.063Z,95241.47
2019-03-27T09:52:23.289Z,95244.97
2019-03-27T09:54:56.476Z,95236.69
2019-03-27T09:57:29.499Z,95235.22
2019-03-27T10:00:02.449Z,95237.33
2019-03-27T10:02:35.580Z,95242.05
2019-03-27T10:05:09.492Z,95235.61
2019-03-27T10:07:42.472Z,95243.70
2019-03-27T10:10:15.930Z,95234.94
2019-03-27T10:12:48.864Z,95227.81
2019-03-27T10:15:22.053Z,95219.33
2019-03-27T10:17:55.206Z,95219.20
2019-03-27T10:20:28.171Z,95220.19
2019-03-27T10:23:01.353Z,95217.97
2019-03-27T10:25:34.532Z,95216.57
2019-03-27T10:28:07.517Z,95210.12
2019-03-27T10:30:40.636Z,95211.41
2019-03-27T10:33:15.370Z,95197.55
2019-03-27T10:35:48.633Z,95197.95
2019-03-27T10:38:21.765Z,95201.20
2019-03-27T10:40:54.774Z,95197.04
2019-03-27T10:43:27.886Z,95198.91
2019-03-27T10:46:00.856Z,95193.28
2019-03-27T10:48:34.087Z,95191.36
2019-03-27T10:51:07.353Z,95186.00
2019-03-27T10:53:40.602Z,95185.66
2019-03-27T10:56:13.922Z,95174.08
2019-03-27T10:58:46.997Z,95182.23
2019-03-27T11:01:20.027Z,95171.78
2019-03-27T11:03:53.204Z,95175.74
2019-03-27T11:06:26.285Z,95169.55
2019-03-27T11:08:59.583Z,95169.27
2019-03-27T11:11:32.586Z,95165.47
2019-03-27T11:14:05.888Z,95162.81
2019-03-27T11:16:39.310Z,95155.98
2019-03-27T11:19:12.604Z,95158.98
2019-03-27T11:21:45.675Z,95155.93
2019-03-27T11:24:18.743Z,95153.76
2019-03-27T11:26:51.901Z,95147.59
2019-03-27T11:29:25.362Z,95148.13
2019-03-27T11:31:58.598Z,95139.92
2019-03-27T11:34:31.608Z,95143.88
2019-03-27T11:37:04.996Z,95136.56
2019-03-27T11:39:38.231Z,95129.09
2019-03-27T11:42:11.461Z,95129.30
2019-03-27T11:44:44.660Z,95124.84
2019-03-27T11:47:17.683Z,95121.45
2019-03-27T11:49:50.832Z,95122.59
2019-03-27T11:52:23.992Z,95120.97
2019-03-27T11:54:56.906Z,95122.25
2019-03-27T11:57:30.137Z,95113.02
2019-03-27T12:00:03.459Z,95105.51
2019-03-27T12:02:36.486Z,95106.23
2019-03-27T12:05:10.719Z,95102.95
2019-03-27T12:07:44.142Z,95104.17
2019-03-27T12:10:17.775Z,95102.92
2019-03-27T12:12:50.735Z,95092.37
2019-03-27T12:15:43.427Z,95093.22
2019-03-27T12:18:18.795Z,95086.61
2019-03-27T12:20:58.988Z,95087.48
2019-03-27T12:23:26.651Z,95089.02
2019-03-27T12:25:59.811Z,95085.83
2019-03-27T12:28:33.042Z,95089.30
2019-03-27T12:31:06.307Z,95076.33
2019-03-27T12:33:39.543Z,95089.06
2019-03-27T12:36:12.592Z,95086.59
2019-03-27T12:38:45.708Z,95085.02
2019-03-27T12:41:18.934Z,95076.69
2019-03-27T12:43:51.975Z,95078.31
2019-03-27T12:46:25.087Z,95079.06
2019-03-27T12:48:58.230Z,95079.22
2019-03-27T12:51:31.216Z,95083.41
2019-03-27T12:54:04.704Z,95075.42
2019-03-27T12:56:37.774Z,95072.20
2019-03-27T12:59:11.006Z,95071.88
2019-03-27T13:01:44.315Z,95074.55
2019-03-27T13:04:17.610Z,95064.35
2019-03-27T13:06:50.795Z,95068.82
2019-03-27T13:09:23.845Z,95062.63
2019-03-27T13:11:57.059Z,95062.63
2019-03-27T13:14:30.226Z,95065.52
2019-03-27T13:17:03.357Z,95063.70
2019-03-27T13:19:36.467Z,95067.44
2019-03-27T13:22:09.504Z,95064.84
2019-03-27T13:24:42.747Z,95064.38
2019-03-27T13:27:15.922Z,95072.09
2019-03-27T13:29:49.250Z,95069.31
2019-03-27T13:32:22.441Z,95070.30
2019-03-27T13:34:55.961Z,95064.44
2019-03-27T13:37:29.109Z,95063.98
2019-03-27T13:40:02.445Z,95069.33
2019-03-27T13:42:35.715Z,95068.83
2019-03-27T13:45:10.351Z,95078.70
2019-03-27T13:47:43.397Z,95075.38
2019-03-27T13:50:18.138Z,95081.81
2019-03-27T13:52:51.319Z,95078.66
2019-03-27T13:55:24.626Z,95073.95
2019-03-27T13:57:57.794Z,95078.39
2019-03-27T14:00:30.967Z,95081.20
2019-03-27T14:03:04.232Z,95078.25
2019-03-27T14:05:37.267Z,95084.33
2019-03-27T14:08:10.467Z,95081.31
2019-03-27T14:10:43.670Z,95082.86
2019-03-27T14:13:17.009Z,95080.13
2019-03-27T14:15:50.186Z,95077.08
2019-03-27T14:18:23.388Z,95076.78
2019-03-27T14:20:56.371Z,95079.40
2019-03-27T14:23:29.504Z,95080.38
2019-03-27T14:26:02.703Z,95086.58
2019-03-27T14:28:35.884Z,95087.38
2019-03-27T14:31:09.132Z,95080.30
2019-03-27T14:33:42.277Z,95086.38
2019-03-27T14:36:15.402Z,95086.67
2019-03-27T14:38:48.552Z,95091.19
2019-03-27T14:41:22.041Z,95092.86
2019-03-27T14:43:55.067Z,95089.30
2019-03-27T14:46:28.222Z,95093.37
2019-03-27T14:49:01.467Z,95094.15
2019-03-27T14:51:34.849Z,95088.31
2019-03-27T14:54:08.427Z,95087.41
2019-03-27T14:56:41.487Z,95095.33
2019-03-27T14:59:17.353Z,95101.50
2019-03-27T15:01:52.317Z,95100.15
2019-03-27T15:04:25.490Z,95100.67
2019-03-27T15:06:58.569Z,95101.50
2019-03-27T15:09:31.632Z,95102.94
2019-03-27T15:12:04.941Z,95109.12
2019-03-27T15:14:38.097Z,95107.64
2019-03-27T15:17:13.148Z,95115.19
2019-03-27T15:19:46.285Z,95111.13
2019-03-27T15:22:22.562Z,95115.50
2019-03-27T15:24:54.749Z,95108.02
2019-03-27T15:27:28.018Z,95112.94
2019-03-27T15:30:03.120Z,95114.36
2019-03-27T15:32:36.902Z,95117.98
2019-03-27T15:35:10.441Z,95120.59
2019-03-27T15:37:43.702Z,95118.14
2019-03-27T15:40:20.834Z,95126.34
2019-03-27T15:42:53.964Z,95123.94
2019-03-27T15:45:27.202Z,95123.49
2019-03-27T15:48:01.421Z,95125.73
2019-03-27T15:50:34.886Z,95134.97
2019-03-27T15:53:08.053Z,95137.20
2019-03-27T15:55:41.308Z,95139.27
2019-03-27T15:58:14.385Z,95146.70
2019-03-27T16:00:47.910Z,95150.77
2019-03-27T16:03:21.192Z,95159.47
2019-03-27T16:05:54.390Z,95157.84
2019-03-27T16:08:27.550Z,95165.62
2019-03-27T16:11:00.749Z,95165.95
2019-03-27T16:13:33.863Z,95163.80
2019-03-27T16:16:07.268Z,95166.45
2019-03-27T16:18:40.434Z,95166.87
2019-03-27T16:21:13.804Z,95168.70
2019-03-27T16:24:06.384Z,95178.03
2019-03-27T16:26:32.994Z,95178.77
2019-03-27T16:29:07.340Z,95184.66
2019-03-27T16:31:41.056Z,95189.83
2019-03-27T16:34:14.785Z,95188.94
2019-03-27T16:36:49.917Z,95192.43
2019-03-27T16:39:23.934Z,95199.66
2019-03-27T16:41:59.123Z,95198.81
2019-03-27T16:44:34.251Z,95206.73
2019-03-27T16:47:08.579Z,95202.13
2019-03-27T16:49:42.949Z,95207.86
2019-03-27T16:52:17.154Z,95213.05
2019-03-27T16:57:31.406Z,95222.80
2019-03-27T17:00:06.303Z,95225.48
2019-03-27T17:02:40.591Z,95223.95
2019-03-27T17:05:15.941Z,95233.80
2019-03-27T17:07:50.398Z,95240.17
2019-03-27T17:10:24.556Z,95239.02
2019-03-27T17:12:58.807Z,95245.93
2019-03-27T17:15:53.612Z,95251.85
2019-03-27T17:19:44.558Z,95258.19
2019-03-27T17:23:39.782Z,95264.50
2019-03-27T17:26:14.180Z,95268.95
2019-03-27T17:28:48.186Z,95275.13
2019-03-27T17:31:22.475Z,95276.81
2019-03-27T17:34:16.494Z,95276.33
2019-03-27T17:36:51.357Z,95280.99
2019-03-27T17:39:26.027Z,95284.91
2019-03-27T17:42:01.623Z,95292.06
2019-03-27T17:44:36.494Z,95297.16
2019-03-27T17:47:19.221Z,95299.38
2019-03-27T17:49:53.906Z,95304.02
2019-03-27T17:52:27.970Z,95314.30
2019-03-27T17:55:01.899Z,95309.59
2019-03-27T17:57:35.959Z,95316.05
2019-03-27T18:00:11.483Z,95316.31
2019-03-27T18:02:45.665Z,95327.91
2019-03-27T18:05:19.800Z,95334.16
2019-03-27T18:07:52.987Z,95342.44
2019-03-27T18:10:26.357Z,95344.95
2019-03-27T18:12:59.880Z,95343.42
2019-03-27T18:15:32.856Z,95346.66
2019-03-27T18:18:06.312Z,95344.17
2019-03-27T18:20:39.411Z,95350.41
2019-03-27T18:23:12.943Z,95348.69
2019-03-27T18:25:46.031Z,95357.14
2019-03-27T18:28:19.409Z,95354.56
2019-03-27T18:30:52.477Z,95361.20
2019-03-27T18:33:25.469Z,95361.66
2019-03-27T18:36:00.593Z,95359.13
2019-03-27T18:38:33.576Z,95361.32
2019-03-27T18:41:06.820Z,95367.52
2019-03-27T18:43:39.803Z,95371.71
2019-03-27T18:46:15.622Z,95370.36
2019-03-27T18:48:48.649Z,95372.70
2019-03-27T18:51:21.721Z,95370.95
2019-03-27T18:53:59.960Z,95372.67
2019-03-27T18:56:31.145Z,95366.51
2019-03-27T18:59:07.111Z,95371.64
2019-03-27T19:01:40.336Z,95367.52
2019-03-27T19:04:15.701Z,95376.30
2019-03-27T19:06:50.655Z,95381.00
2019-03-27T19:09:23.753Z,95375.35
2019-03-27T19:11:56.953Z,95376.80
2019-03-27T19:14:30.105Z,95377.52
2019-03-27T19:17:03.269Z,95374.25
2019-03-27T19:19:36.535Z,95377.56
2019-03-27T19:22:09.872Z,95372.41
2019-03-27T19:24:43.149Z,95375.78
2019-03-27T19:27:16.490Z,95377.67
2019-03-27T19:29:49.542Z,95379.27
2019-03-27T19:32:23.015Z,95386.67
2019-03-27T19:34:56.415Z,95391.81
2019-03-27T19:37:32.183Z,95390.04
2019-03-27T19:40:09.271Z,95385.89
2019-03-27T19:42:42.874Z,95381.21
2019-03-27T19:45:18.907Z,95384.60
2019-03-27T19:47:52.324Z,95386.72
2019-03-27T19:50:25.529Z,95389.38
2019-03-27T19:52:58.662Z,95391.05
2019-03-27T19:55:32.062Z,95392.71
2019-03-27T19:58:07.350Z,95395.46
2019-03-27T20:00:40.940Z,95397.25
2019-03-27T20:03:14.953Z,95398.45
2019-03-27T20:05:49.195Z,95390.49
2019-03-27T20:08:22.325Z,95394.26
2019-03-27T20:10:55.472Z,95394.50
2019-03-27T20:13:28.900Z,95401.94
2019-03-27T20:16:04.685Z,95403.50
2019-03-27T20:18:40.101Z,95397.13
2019-03-27T20:21:13.502Z,95406.02
2019-03-27T20:23:46.536Z,95403.38
2019-03-27T20:26:19.786Z,95403.67
2019-03-27T20:28:53.210Z,95402.37
2019-03-27T20:31:26.964Z,95412.20
2019-03-27T20:34:00.013Z,95415.54
2019-03-27T20:36:33.516Z,95421.60
2019-03-27T20:39:09.284Z,95423.74
2019-03-27T20:41:42.249Z,95429.52
2019-03-27T20:44:15.411Z,95429.41
2019-03-27T20:46:48.430Z,95431.96
2019-03-27T20:49:21.492Z,95429.79
2019-03-27T20:51:55.027Z,95440.17
2019-03-27T20:54:28.146Z,95451.17
2019-03-27T20:57:01.034Z,95454.45
2019-03-27T20:59:34.177Z,95455.55
2019-03-27T21:02:07.475Z,95460.25
2019-03-27T21:04:40.765Z,95465.34
2019-03-27T21:07:14.096Z,95468.91
2019-03-27T21:09:47.220Z,95468.13
2019-03-27T21:12:20.085Z,95458.81
2019-03-27T21:14:53.755Z,95463.79
2019-03-27T21:17:26.928Z,95465.98
2019-03-27T21:20:00.417Z,95469.42
2019-03-27T21:22:33.553Z,95471.09
2019-03-27T21:25:09.218Z,95473.73
2019-03-27T21:27:42.058Z,95476.36
2019-03-27T21:30:15.422Z,95476.97
2019-03-27T21:32:48.670Z,95476.45
2019-03-27T21:35:21.569Z,95473.94
2019-03-27T21:37:54.561Z,95478.73
2019-03-27T21:40:27.558Z,95479.38
2019-03-27T21:43:01.768Z,95483.02
2019-03-27T21:45:34.631Z,95480.94
2019-03-27T21:48:07.747Z,95487.23
2019-03-27T21:50:44.341Z,95488.93
2019-03-27T21:53:19.092Z,95489.84
2019-03-27T21:55:52.157Z,95484.34
2019-03-27T21:58:25.065Z,95486.48
2019-03-27T22:00:58.131Z,95489.95
2019-03-27T22:03:31.598Z,95487.00
2019-03-27T22:06:04.856Z,95489.97
2019-03-27T22:08:37.818Z,95491.44
2019-03-27T22:11:10.880Z,95493.80
2019-03-27T22:13:43.888Z,95493.47
2019-03-27T22:16:17.198Z,95495.05
2019-03-27T22:18:50.264Z,95493.81
2019-03-27T22:21:23.418Z,95499.65
2019-03-27T22:23:56.468Z,95499.22
2019-03-27T22:26:29.658Z,95498.28
2019-03-27T22:29:02.519Z,95508.94
2019-03-27T22:31:35.439Z,95507.89
2019-03-27T22:34:08.745Z,95511.83
2019-03-27T22:36:41.812Z,95518.16
2019-03-27T22:39:14.786Z,95519.08
2019-03-27T22:41:47.783Z,95520.95
2019-03-27T22:44:20.661Z,95521.98
2019-03-27T22:46:53.739Z,95526.97
2019-03-27T22:49:26.864Z,95529.16
2019-03-27T22:51:59.870Z,95532.13
2019-03-27T22:54:32.759Z,95527.55
2019-03-27T22:57:05.694Z,95525.84
2019-03-27T22:59:38.417Z,95531.03
2019-03-27T23:02:11.298Z,95528.09
2019-03-27T23:04:44.148Z,95532.83
2019-03-27T23:07:17.055Z,95532.16
2019-03-27T23:09:49.966Z,95524.06
2019-03-27T23:12:22.818Z,95526.09
2019-03-27T23:14:55.785Z,95518.87
2019-03-27T23:17:28.711Z,95525.95
2019-03-27T23:20:01.565Z,95526.98
2019-03-27T23:22:34.417Z,95530.59
2019-03-27T23:25:07.697Z,95527.40
2019-03-27T23:27:40.936Z,95532.45
2019-03-27T23:30:14.142Z,95536.22
2019-03-27T23:32:47.126Z,95533.00
2019-03-27T23:35:20.197Z,95532.07
2019-03-27T23:37:53.097Z,95530.55
2019-03-27T23:40:25.978Z,95530.53
2019-03-27T23:42:59.059Z,95532.75
2019-03-27T23:45:32.022Z,95526.98
2019-03-27T23:48:04.941Z,95534.14
2019-03-27T23:50:37.798Z,95536.17
2019-03-27T23:53:10.830Z,95532.21
2019-03-27T23:55:44.160Z,95536.13
2019-03-27T23:58:17.031Z,95533.70
